Terminal Aerodrome Forecast
Issued by NWS Wilmington, OH

Current Version | Previous Version | Text Only | Print | Product List | Glossary Off
Versions: 1 2 3 4 5 6 7 8 9 10 11 12

607
FTUS41 KILN 040541
TAFCMH
TAF
KCMH 040541Z 0406/0506 28013G23KT P6SM SCT025 OVC035
     FM040700 27012KT P6SM OVC015
     FM041600 27009KT P6SM BKN025
     FM042000 27011KT P6SM BKN035
     FM050300 27006KT P6SM SKC=

USA.gov is the U.S. government's official web portal to all federal, state and local government web resources and services.